createdAt,value
2023-03-19T00:02:21.375Z,3.58
2023-03-19T00:07:22.776Z,3.92
2023-03-19T00:12:24.144Z,3.75
2023-03-19T00:17:25.661Z,3.55
2023-03-19T00:22:27.021Z,3.00
2023-03-19T00:27:28.415Z,3.05
2023-03-19T00:32:30.041Z,3.22
2023-03-19T00:37:31.613Z,3.30
2023-03-19T00:42:33.162Z,3.33
2023-03-19T00:47:34.608Z,3.25
2023-03-19T00:52:35.943Z,3.25
2023-03-19T00:57:37.288Z,3.17
2023-03-19T01:02:38.630Z,4.22
2023-03-19T01:07:40.293Z,4.07
2023-03-19T01:12:41.786Z,4.68
2023-03-19T01:17:43.430Z,3.65
2023-03-19T01:22:45.949Z,4.13
2023-03-19T01:27:47.456Z,4.45
2023-03-19T01:32:49.198Z,3.90
2023-03-19T01:37:51.003Z,4.38
2023-03-19T01:42:55.097Z,3.95
2023-03-19T01:47:56.522Z,4.10
2023-03-19T01:52:57.934Z,3.60
2023-03-19T01:57:59.343Z,4.05
2023-03-19T02:03:02.114Z,3.55
2023-03-19T02:08:07.297Z,4.80
2023-03-19T02:13:08.743Z,3.70
2023-03-19T02:18:10.613Z,3.55
2023-03-19T02:23:30.271Z,3.80
2023-03-19T02:28:33.467Z,4.13
2023-03-19T02:33:35.303Z,4.30
2023-03-19T02:38:38.909Z,3.13
2023-03-19T02:43:41.907Z,3.60
2023-03-19T02:48:43.807Z,2.92
2023-03-19T02:53:46.020Z,3.58
2023-03-19T02:58:47.680Z,3.28
2023-03-19T03:03:49.670Z,3.60
2023-03-19T03:08:52.067Z,3.80
2023-03-19T03:13:53.407Z,3.75
2023-03-19T03:18:54.744Z,4.00
2023-03-19T03:23:56.318Z,3.95
2023-03-19T03:28:57.690Z,4.55
2023-03-19T03:33:59.070Z,4.63
2023-03-19T03:39:00.431Z,4.13
2023-03-19T03:44:01.808Z,5.05
2023-03-19T03:49:03.273Z,5.72
2023-03-19T03:54:04.653Z,6.70
2023-03-19T03:59:06.108Z,7.15
2023-03-19T04:04:07.551Z,6.07
2023-03-19T04:09:09.089Z,7.72
2023-03-19T04:14:10.605Z,5.05
2023-03-19T04:19:11.945Z,4.82
2023-03-19T04:24:14.166Z,5.63
2023-03-19T04:29:16.592Z,5.80
2023-03-19T04:34:18.008Z,5.00
2023-03-19T04:39:19.589Z,4.85
2023-03-19T04:44:21.781Z,6.25
2023-03-19T04:49:24.499Z,5.72
2023-03-19T04:54:25.995Z,5.13
2023-03-19T04:59:27.441Z,5.40
2023-03-19T05:04:28.880Z,5.50
2023-03-19T05:09:30.849Z,6.00
2023-03-19T05:14:32.502Z,5.55
2023-03-19T05:19:34.032Z,6.13
2023-03-19T05:24:36.133Z,6.97
2023-03-19T05:29:40.734Z,6.00
2023-03-19T05:34:42.331Z,5.88
2023-03-19T05:39:43.810Z,5.28
2023-03-19T05:44:45.262Z,7.05
2023-03-19T05:49:47.253Z,10.52
2023-03-19T05:54:50.564Z,7.35
2023-03-19T05:59:52.569Z,6.70
2023-03-19T06:04:54.209Z,5.63
2023-03-19T06:09:55.858Z,6.25
2023-03-19T06:14:57.293Z,6.03
2023-03-19T06:20:01.218Z,6.00
2023-03-19T06:25:02.667Z,5.22
2023-03-19T06:30:05.108Z,6.78
2023-03-19T06:35:06.748Z,5.85
2023-03-19T06:40:08.699Z,6.45
2023-03-19T06:45:10.563Z,5.47
2023-03-19T06:50:12.336Z,6.18
2023-03-19T06:55:14.115Z,5.93
2023-03-19T07:00:16.640Z,5.78
2023-03-19T07:05:18.099Z,5.97
2023-03-19T07:10:21.972Z,5.43
2023-03-19T07:15:23.364Z,5.15
2023-03-19T07:20:24.850Z,5.47
2023-03-19T07:25:26.515Z,5.43
2023-03-19T07:30:27.985Z,5.38
2023-03-19T07:35:29.459Z,5.22
2023-03-19T07:40:31.428Z,5.47
2023-03-19T07:45:32.972Z,4.90
2023-03-19T07:50:35.270Z,5.50
2023-03-19T07:55:38.458Z,5.10
2023-03-19T08:00:39.920Z,5.28
2023-03-19T08:05:41.893Z,5.50
2023-03-19T08:10:43.873Z,5.45
2023-03-19T08:15:45.427Z,5.93
2023-03-19T08:20:46.889Z,5.45
2023-03-19T08:25:51.631Z,5.32
2023-03-19T08:30:53.135Z,6.75
2023-03-19T08:36:03.571Z,6.18
2023-03-19T08:41:06.233Z,5.65
2023-03-19T08:46:07.679Z,5.03
2023-03-19T08:51:09.918Z,5.00
2023-03-19T08:56:11.307Z,5.05
2023-03-19T09:01:14.475Z,5.13
2023-03-19T09:06:15.983Z,4.53
2023-03-19T09:11:18.061Z,4.63
2023-03-19T09:16:19.769Z,4.43
2023-03-19T09:21:21.506Z,3.60
2023-03-19T09:26:22.930Z,3.78
2023-03-19T09:31:24.760Z,3.75
2023-03-19T09:36:26.584Z,2.50
2023-03-19T09:41:31.336Z,2.92
2023-03-19T09:46:43.221Z,2.17
2023-03-19T09:51:50.248Z,1.80
2023-03-19T09:56:52.337Z,2.22
2023-03-19T10:02:00.959Z,2.20
2023-03-19T10:07:12.875Z,2.20
2023-03-19T10:12:26.159Z,1.95
2023-03-19T10:17:33.177Z,2.00
2023-03-19T10:27:47.235Z,1.50
2023-03-19T10:32:55.086Z,1.00
2023-03-19T10:37:56.521Z,1.00
2023-03-19T10:43:17.697Z,1.48
2023-03-19T10:48:19.678Z,0.98
2023-03-19T10:53:39.954Z,0.95
2023-03-19T10:58:41.791Z,1.20
2023-03-19T11:03:57.477Z,1.08
2023-03-19T11:09:08.135Z,1.10
2023-03-19T11:14:18.260Z,1.45
2023-03-19T11:19:29.476Z,1.23
2023-03-19T11:24:37.609Z,1.15
2023-03-19T11:29:43.908Z,1.25
2023-03-19T11:34:49.195Z,1.53
2023-03-19T11:39:54.044Z,1.70
2023-03-19T11:45:22.965Z,1.40
2023-03-19T11:51:08.880Z,1.30
2023-03-19T11:56:35.096Z,1.20
2023-03-19T12:01:54.768Z,1.38
2023-03-19T12:07:21.155Z,1.20
2023-03-19T12:12:29.983Z,1.95
2023-03-19T12:17:38.948Z,1.60
2023-03-19T12:22:45.331Z,1.48
2023-03-19T12:28:19.038Z,1.70
2023-03-19T12:33:38.707Z,2.25
2023-03-19T12:38:48.191Z,2.45
2023-03-19T12:43:59.358Z,2.70
2023-03-19T12:49:24.308Z,2.00
2023-03-19T12:54:31.427Z,1.30
2023-03-19T12:59:36.476Z,1.45
2023-03-19T13:04:53.329Z,1.63
2023-03-19T13:10:09.217Z,1.35
2023-03-19T13:15:27.683Z,0.80
2023-03-19T13:20:49.014Z,0.60
2023-03-19T13:25:52.856Z,0.43
2023-03-19T13:31:06.159Z,0.60
2023-03-19T13:36:14.573Z,0.40
2023-03-19T13:41:34.868Z,0.30
2023-03-19T13:46:38.452Z,0.60
2023-03-19T13:51:39.928Z,0.40
2023-03-19T13:57:12.830Z,0.30
2023-03-19T14:02:23.880Z,0.20
2023-03-19T14:07:28.816Z,0.35
2023-03-19T14:12:34.183Z,0.25
2023-03-19T14:17:53.880Z,0.20
2023-03-19T14:23:23.311Z,0.73
2023-03-19T14:28:38.826Z,0.20
2023-03-19T14:33:55.824Z,0.22
2023-03-19T14:39:00.565Z,0.15
2023-03-19T14:44:35.479Z,0.30
2023-03-19T14:50:15.949Z,0.10
2023-03-19T14:55:17.756Z,0.20
2023-03-19T15:00:20.465Z,0.28
2023-03-19T15:05:26.235Z,0.30
2023-03-19T15:10:30.766Z,0.40
2023-03-19T15:15:39.528Z,0.30
2023-03-19T15:20:47.360Z,0.30
2023-03-19T15:25:57.575Z,0.20
2023-03-19T15:31:14.430Z,0.50
2023-03-19T15:36:33.246Z,1.05
2023-03-19T15:41:41.210Z,0.40
2023-03-19T15:46:44.509Z,0.10
2023-03-19T15:51:51.637Z,0.20
2023-03-19T15:56:53.641Z,0.90
2023-03-19T16:01:59.528Z,0.20
2023-03-19T16:07:01.364Z,0.10
2023-03-19T16:12:02.767Z,0.20
2023-03-19T16:17:13.034Z,0.10
2023-03-19T16:22:17.574Z,0.20
2023-03-19T16:27:22.485Z,0.20
2023-03-19T16:32:26.081Z,0.10
2023-03-19T16:37:33.796Z,0.17
2023-03-19T16:42:35.239Z,0.20
2023-03-19T16:47:36.764Z,0.20
2023-03-19T16:52:39.622Z,0.25
2023-03-19T16:57:41.318Z,0.30
2023-03-19T17:02:42.659Z,0.40
2023-03-19T17:07:44.376Z,0.20
2023-03-19T17:12:48.892Z,0.30
2023-03-19T17:17:51.009Z,0.30
2023-03-19T17:22:52.373Z,0.35
2023-03-19T17:27:53.956Z,0.40
2023-03-19T17:32:57.045Z,0.82
2023-03-19T17:37:58.392Z,0.50
2023-03-19T17:42:59.908Z,0.60
2023-03-19T17:48:01.311Z,0.68
2023-03-19T17:53:02.709Z,0.73
2023-03-19T17:58:04.158Z,0.60
2023-03-19T18:03:05.680Z,0.63
2023-03-19T18:08:07.067Z,0.82
2023-03-19T18:13:09.384Z,1.52
2023-03-19T18:18:20.964Z,1.55
2023-03-19T18:23:24.005Z,1.60
2023-03-19T18:28:25.526Z,2.25
2023-03-19T18:33:30.151Z,2.20
2023-03-19T18:38:31.543Z,2.22
2023-03-19T18:43:32.874Z,2.53
2023-03-19T18:48:34.229Z,1.48
2023-03-19T18:53:35.694Z,1.80
2023-03-19T18:58:38.730Z,1.90
2023-03-19T19:03:40.218Z,3.08
2023-03-19T19:08:41.550Z,3.53
2023-03-19T19:13:55.663Z,3.38
2023-03-19T19:18:58.163Z,3.28
2023-03-19T19:23:59.548Z,4.93
2023-03-19T19:29:01.239Z,4.95
2023-03-19T19:34:02.801Z,3.28
2023-03-19T19:39:04.279Z,3.58
2023-03-19T19:44:06.666Z,3.20
2023-03-19T19:49:12.742Z,5.88
2023-03-19T19:54:14.128Z,4.53
2023-03-19T19:59:15.826Z,5.00
2023-03-19T20:04:17.328Z,4.80
2023-03-19T20:09:18.700Z,5.03
2023-03-19T20:14:20.337Z,4.85
2023-03-19T20:19:21.797Z,5.28
2023-03-19T20:24:23.196Z,4.50
2023-03-19T20:29:24.542Z,5.78
2023-03-19T20:34:38.780Z,5.97
2023-03-19T20:39:40.923Z,4.95
2023-03-19T20:44:43.388Z,2.60
2023-03-19T20:49:45.599Z,3.00
2023-03-19T20:54:48.023Z,4.20
2023-03-19T20:59:49.664Z,3.88
2023-03-19T21:04:51.615Z,3.63
2023-03-19T21:09:53.007Z,1.95
2023-03-19T21:14:54.706Z,1.40
2023-03-19T21:19:56.636Z,1.98
2023-03-19T21:25:07.796Z,2.38
2023-03-19T21:30:14.697Z,2.80
2023-03-19T21:35:24.261Z,3.58
2023-03-19T21:40:29.821Z,3.00
2023-03-19T21:45:33.911Z,3.00
2023-03-19T21:50:35.656Z,3.15
2023-03-19T21:55:37.232Z,2.40
2023-03-19T22:00:39.122Z,3.25
2023-03-19T22:05:40.644Z,2.95
2023-03-19T22:10:42.752Z,3.67
2023-03-19T22:15:44.102Z,3.75
2023-03-19T22:20:46.928Z,3.88
2023-03-19T22:25:50.775Z,4.55
2023-03-19T22:30:52.442Z,4.18
2023-03-19T22:35:53.931Z,4.57
2023-03-19T22:40:56.262Z,3.63
2023-03-19T22:46:02.280Z,3.90
2023-03-19T22:51:04.742Z,4.28
2023-03-19T22:56:06.329Z,3.80
2023-03-19T23:01:28.941Z,4.07
2023-03-19T23:06:31.132Z,4.55
2023-03-19T23:11:32.523Z,4.22
2023-03-19T23:16:34.205Z,4.00
2023-03-19T23:21:35.542Z,4.13
2023-03-19T23:26:37.339Z,4.40
2023-03-19T23:31:38.686Z,4.65
2023-03-19T23:36:41.810Z,4.75
2023-03-19T23:41:53.524Z,4.80
2023-03-19T23:46:57.840Z,5.10
2023-03-19T23:52:00.000Z,5.72
2023-03-19T23:57:06.529Z,5.78
